Time;durP1;ratioP1;P1;durP2;ratioP2;P2;SDS_P1;SDS_P2;PMS_P1;PMS_P2;Temp;Humidity;BMP_temperature;BMP_pressure;BME280_temperature;BME280_humidity;BME280_pressure;Samples;Min_cycle;Max_cycle;Signal;HPM_P1;HPM_P2
2022/07/03 00:00:21;;;;;;;6.35;5.07;;;12.50;99.90;;;;;;5055300;28;20056;-73
2022/07/03 00:02:47;;;;;;;10.95;5.38;;;12.50;99.90;;;;;;5073419;28;20024;-73
2022/07/03 00:05:13;;;;;;;4.45;3.50;;;12.40;99.90;;;;;;5073444;28;20032;-73
2022/07/03 00:07:39;;;;;;;4.20;3.67;;;12.40;99.90;;;;;;5059240;28;20091;-72
2022/07/03 00:10:06;;;;;;;6.13;4.53;;;12.40;99.90;;;;;;5053410;28;20049;-72
2022/07/03 00:12:32;;;;;;;11.43;7.75;;;12.40;99.90;;;;;;5053225;28;20087;-74
2022/07/03 00:14:58;;;;;;;13.70;7.10;;;12.40;99.90;;;;;;5052968;28;20029;-72
2022/07/03 00:17:23;;;;;;;8.68;7.10;;;12.40;99.90;;;;;;5053233;28;20067;-72
2022/07/03 00:19:49;;;;;;;11.80;7.60;;;12.40;99.90;;;;;;5035098;28;20028;-73
2022/07/03 00:22:15;;;;;;;7.60;6.50;;;12.40;99.90;;;;;;5053190;28;20117;-73
2022/07/03 00:24:50;;;;;;;10.38;6.45;;;12.50;99.90;;;;;;5052966;28;20029;-73
2022/07/03 00:27:18;;;;;;;9.63;6.32;;;12.40;99.90;;;;;;5053209;28;20067;-72
2022/07/03 00:29:45;;;;;;;10.40;6.45;;;12.40;99.90;;;;;;5035026;28;20510;-72
2022/07/03 00:32:18;;;;;;;5.40;4.45;;;12.40;99.90;;;;;;5035256;28;20474;-72
2022/07/03 00:34:46;;;;;;;8.00;4.78;;;12.30;99.90;;;;;;5053718;28;20056;-73
2022/07/03 00:37:12;;;;;;;5.88;5.05;;;12.30;99.90;;;;;;5072969;28;20021;-74
2022/07/03 00:39:40;;;;;;;10.63;7.18;;;12.20;99.90;;;;;;5072984;28;20028;-74
2022/07/03 00:42:07;;;;;;;11.65;7.60;;;12.20;99.90;;;;;;5073038;28;20077;-73
2022/07/03 00:44:42;;;;;;;10.23;6.63;;;12.10;99.90;;;;;;5072852;28;20118;-72
2022/07/03 00:47:08;;;;;;;6.95;5.22;;;12.10;99.90;;;;;;5072893;28;20020;-72
2022/07/03 00:49:35;;;;;;;6.13;5.13;;;12.10;99.90;;;;;;5072891;28;20025;-72
2022/07/03 00:52:05;;;;;;;6.53;4.78;;;12.10;99.90;;;;;;5055085;28;20022;-72
2022/07/03 00:54:34;;;;;;;5.10;4.60;;;12.00;99.90;;;;;;5072774;28;20024;-72
2022/07/03 00:57:01;;;;;;;4.40;4.07;;;12.00;99.90;;;;;;5054654;28;20124;-72
2022/07/03 00:59:27;;;;;;;4.65;4.25;;;12.00;99.90;;;;;;5054750;28;20056;-72
2022/07/03 01:02:02;;;;;;;6.22;5.63;;;12.00;99.90;;;;;;5054828;28;20063;-73
2022/07/03 01:04:36;;;;;;;6.75;5.13;;;12.00;99.90;;;;;;5058629;28;20017;-71
2022/07/03 01:07:16;;;;;;;5.90;5.40;;;12.00;99.90;;;;;;5058512;28;20048;-72
2022/07/03 01:10:04;;;;;;;4.93;4.45;;;11.90;99.90;;;;;;5076582;28;20020;-72
2022/07/03 01:12:51;;;;;;;9.85;7.55;;;11.90;99.90;;;;;;5058635;28;20024;-72
2022/07/03 01:15:36;;;;;;;8.52;7.15;;;12.00;99.90;;;;;;5076408;28;20029;-72
2022/07/03 01:18:20;;;;;;;10.38;8.30;;;12.00;99.90;;;;;;5076476;28;20017;-72
2022/07/03 01:20:59;;;;;;;8.52;7.18;;;12.10;99.90;;;;;;5075949;28;20033;-74
2022/07/03 01:23:36;;;;;;;7.80;7.00;;;12.10;99.90;;;;;;5076524;28;20017;-73
2022/07/03 01:26:05;;;;;;;6.88;6.18;;;12.20;99.90;;;;;;5076209;28;20017;-72
2022/07/03 01:28:32;;;;;;;11.18;6.50;;;12.10;99.90;;;;;;5058300;28;20444;-72
2022/07/03 01:31:00;;;;;;;8.48;6.63;;;12.10;99.90;;;;;;5076027;28;20044;-72
2022/07/03 01:33:32;;;;;;;7.18;6.47;;;12.10;99.90;;;;;;5058249;28;20092;-73
2022/07/03 01:36:00;;;;;;;8.77;6.55;;;12.10;99.90;;;;;;5046666;28;20436;-72
2022/07/03 01:38:32;;;;;;;6.30;5.70;;;12.10;99.90;;;;;;5056083;28;20062;-72
2022/07/03 01:41:00;;;;;;;6.65;5.40;;;12.00;99.90;;;;;;5037914;28;20054;-72
2022/07/03 01:43:29;;;;;;;8.52;5.45;;;11.90;99.90;;;;;;5056087;28;20021;-74
2022/07/03 01:45:58;;;;;;;7.95;6.30;;;11.90;99.90;;;;;;5055708;28;20044;-72
2022/07/03 01:48:25;;;;;;;7.60;6.82;;;11.80;99.90;;;;;;5056031;28;20092;-72
2022/07/03 01:50:52;;;;;;;8.57;6.65;;;11.90;99.90;;;;;;5055683;28;20027;-72
2022/07/03 01:53:18;;;;;;;7.90;6.82;;;11.90;99.90;;;;;;5021545;28;20025;-72
2022/07/03 01:55:45;;;;;;;8.13;6.88;;;11.90;99.90;;;;;;5037720;28;20083;-73
2022/07/03 01:58:12;;;;;;;11.00;7.43;;;11.90;99.90;;;;;;5055769;28;20059;-72
2022/07/03 02:00:55;;;;;;;8.15;7.00;;;11.90;99.90;;;;;;5055496;28;20104;-72
2022/07/03 02:03:28;;;;;;;;;;;11.90;99.90;;;;;;5038171;28;20032;-73
2022/07/03 02:06:06;;;;;;;8.05;6.75;;;12.00;99.90;;;;;;5037952;28;19916;-74
2022/07/03 02:08:50;;;;;;;8.93;7.45;;;11.90;99.90;;;;;;5075638;28;20044;-73
2022/07/03 02:11:22;;;;;;;7.85;6.32;;;11.90;99.90;;;;;;5075561;28;20024;-72
2022/07/03 02:14:14;;;;;;;7.32;6.07;;;11.90;99.90;;;;;;5074842;28;20025;-71
2022/07/03 02:17:04;;;;;;;7.38;6.50;;;11.80;99.90;;;;;;5057324;28;20435;-72
2022/07/03 02:19:54;;;;;;;7.40;6.60;;;11.80;99.90;;;;;;5075206;28;20016;-72
2022/07/03 02:22:41;;;;;;;8.88;6.70;;;11.90;99.90;;;;;;5075355;28;20475;-72
2022/07/03 02:25:18;;;;;;;6.60;5.60;;;11.90;99.90;;;;;;5075134;28;20485;-72
2022/07/03 02:27:54;;;;;;;5.93;4.88;;;11.80;99.90;;;;;;5075368;28;20033;-72
2022/07/03 02:30:23;;;;;;;6.15;5.25;;;11.70;99.90;;;;;;5075224;28;20023;-73
2022/07/03 02:32:52;;;;;;;45.80;19.17;;;11.60;99.90;;;;;;5075131;28;20031;-72
2022/07/03 02:35:28;;;;;;;37.08;18.10;;;11.60;99.90;;;;;;5068720;28;20501;-72
2022/07/03 02:38:32;;;;;;;21.58;10.35;;;11.60;99.90;;;;;;5055083;28;20113;-73
2022/07/03 02:41:23;;;;;;;28.77;14.35;;;11.60;99.90;;;;;;4999775;28;20076;-73
2022/07/03 02:43:51;;;;;;;24.40;15.50;;;11.80;99.90;;;;;;5054904;28;20025;-72
2022/07/03 02:49:29;;;;;;;27.65;18.65;;;12.30;99.90;;;;;;5055019;28;20448;-72
2022/07/03 02:52:10;;;;;;;28.88;19.92;;;12.50;99.90;;;;;;5054692;28;20106;-73
2022/07/03 02:54:46;;;;;;;32.42;19.67;;;12.70;99.90;;;;;;5036790;28;20092;-73
2022/07/03 02:57:14;;;;;;;32.40;22.20;;;12.90;99.90;;;;;;5054542;28;20378;-72
2022/07/03 02:59:43;;;;;;;28.23;19.58;;;13.00;99.90;;;;;;5054495;28;20437;-72
2022/07/03 03:02:55;;;;;;;25.63;18.85;;;13.20;99.90;;;;;;5054290;28;20123;-74
2022/07/03 03:05:24;;;;;;;26.95;18.58;;;13.30;99.90;;;;;;5027923;28;20041;-72
2022/07/03 03:08:10;;;;;;;28.00;18.65;;;13.40;99.90;;;;;;5071012;28;20052;-73
2022/07/03 03:10:37;;;;;;;25.25;17.80;;;13.50;99.90;;;;;;5074303;28;20027;-72
2022/07/03 03:13:06;;;;;;;26.77;16.70;;;13.60;99.90;;;;;;5074163;28;20363;-73
2022/07/03 03:15:33;;;;;;;24.15;17.65;;;13.70;99.90;;;;;;5074070;28;20029;-72
2022/07/03 03:18:11;;;;;;;24.88;17.30;;;13.70;99.90;;;;;;5074132;28;20436;-73
2022/07/03 03:20:38;;;;;;;26.88;17.80;;;13.80;99.90;;;;;;5056120;28;20024;-72
2022/07/03 03:23:21;;;;;;;19.38;15.55;;;13.90;99.90;;;;;;5056025;28;20393;-73
2022/07/03 03:25:47;;;;;;;17.58;14.63;;;14.00;99.90;;;;;;5073121;28;20150;-73
2022/07/03 03:28:14;;;;;;;24.80;16.25;;;14.10;99.90;;;;;;5073946;28;20107;-73
2022/07/03 03:30:40;;;;;;;21.45;15.82;;;14.20;99.90;;;;;;5073818;28;20069;-74
2022/07/03 03:33:09;;;;;;;24.95;15.68;;;14.40;99.90;;;;;;5073866;28;20020;-73
2022/07/03 03:35:38;;;;;;;19.73;15.25;;;14.60;99.90;;;;;;5064838;28;20028;-72
2022/07/03 03:38:05;;;;;;;20.50;15.25;;;14.80;99.90;;;;;;5053862;28;20009;-73
2022/07/03 03:40:32;;;;;;;20.55;15.70;;;15.00;99.90;;;;;;5053684;28;20437;-74
2022/07/03 03:42:58;;;;;;;18.10;14.07;;;15.30;99.90;;;;;;5053528;28;20360;-73
2022/07/03 03:45:24;;;;;;;17.25;14.13;;;15.40;99.90;;;;;;5053645;28;20032;-73
2022/07/03 03:47:50;;;;;;;15.90;12.55;;;15.60;99.90;;;;;;5053492;28;20513;-73
2022/07/03 03:50:16;;;;;;;17.25;11.68;;;15.70;99.90;;;;;;5053640;28;20025;-73
2022/07/03 03:52:42;;;;;;;13.73;10.75;;;15.70;99.90;;;;;;5035709;28;20095;-73
2022/07/03 03:55:11;;;;;;;17.50;13.32;;;15.80;99.90;;;;;;5053408;28;20036;-72
2022/07/03 03:57:37;;;;;;;15.93;11.95;;;15.80;99.90;;;;;;5053412;28;20471;-74
2022/07/03 04:00:04;;;;;;;13.50;10.77;;;15.90;99.90;;;;;;5053470;28;20074;-73
2022/07/03 04:02:31;;;;;;;15.82;12.63;;;16.00;99.90;;;;;;5035320;28;20037;-73
2022/07/03 04:04:57;;;;;;;15.73;12.52;;;16.10;99.90;;;;;;5035360;28;20025;-74
2022/07/03 04:07:23;;;;;;;14.98;12.70;;;16.10;99.90;;;;;;5066310;28;20087;-74
2022/07/03 04:09:48;;;;;;;17.60;13.48;;;16.20;99.90;;;;;;5073348;28;20052;-73
2022/07/03 04:12:14;;;;;;;16.40;12.05;;;16.00;99.90;;;;;;5055138;28;20021;-74
2022/07/03 04:14:40;;;;;;;19.25;13.35;;;15.90;99.90;;;;;;5073196;28;20044;-73
2022/07/03 04:17:06;;;;;;;19.90;13.88;;;15.80;99.90;;;;;;5055110;28;20023;-74
2022/07/03 04:19:31;;;;;;;19.10;14.55;;;15.70;99.90;;;;;;5073450;28;20482;-73
2022/07/03 04:21:57;;;;;;;18.15;13.85;;;15.50;99.90;;;;;;5072925;28;20032;-74
2022/07/03 04:24:23;;;;;;;18.83;14.45;;;15.50;99.90;;;;;;5055162;28;20028;-72
2022/07/03 04:26:49;;;;;;;15.90;13.02;;;15.40;99.90;;;;;;5055000;28;20114;-74
2022/07/03 04:29:15;;;;;;;17.63;13.32;;;15.40;99.90;;;;;;5073220;28;20106;-73
2022/07/03 04:31:41;;;;;;;17.38;12.52;;;15.40;99.90;;;;;;5073006;28;20017;-73
2022/07/03 04:34:07;;;;;;;14.82;11.70;;;15.50;99.90;;;;;;5073082;28;20031;-74
2022/07/03 04:36:33;;;;;;;12.57;10.90;;;15.50;99.90;;;;;;5037889;28;20013;-74
2022/07/03 04:38:58;;;;;;;12.02;10.80;;;15.50;99.90;;;;;;5056249;28;20099;-74
2022/07/03 04:41:24;;;;;;;13.05;11.52;;;15.60;99.90;;;;;;5057055;28;20124;-74
2022/07/03 04:43:50;;;;;;;13.23;10.45;;;15.60;99.90;;;;;;5057166;28;20025;-73
2022/07/03 04:46:15;;;;;;;13.38;9.32;;;15.60;99.90;;;;;;5056958;28;20033;-73
2022/07/03 04:48:41;;;;;;;11.00;9.73;;;15.70;99.90;;;;;;5057099;28;20049;-73
2022/07/03 04:51:07;;;;;;;12.30;10.32;;;15.70;99.90;;;;;;5057011;28;20079;-73
2022/07/03 04:53:32;;;;;;;14.25;10.77;;;15.80;99.90;;;;;;5056825;28;20032;-73
2022/07/03 04:55:58;;;;;;;11.38;8.93;;;15.80;99.90;;;;;;5056872;28;20371;-72
2022/07/03 04:58:25;;;;;;;9.25;8.35;;;15.90;99.90;;;;;;5056770;28;20475;-74
2022/07/03 05:00:51;;;;;;;9.65;8.63;;;16.00;99.90;;;;;;5056714;28;20033;-72
2022/07/03 05:03:16;;;;;;;9.75;8.52;;;16.10;99.90;;;;;;5038762;28;20502;-74
2022/07/03 05:05:42;;;;;;;9.77;8.85;;;16.20;99.90;;;;;;5038557;28;20033;-74
2022/07/03 05:08:08;;;;;;;10.13;8.73;;;16.30;99.90;;;;;;5076464;28;20029;-73
2022/07/03 05:10:33;;;;;;;10.05;8.80;;;16.40;99.90;;;;;;5058732;28;20024;-73
2022/07/03 05:12:59;;;;;;;8.75;7.95;;;16.40;99.90;;;;;;5058444;28;20466;-74
2022/07/03 05:15:25;;;;;;;10.18;9.20;;;16.50;99.90;;;;;;5076535;28;20086;-73
2022/07/03 05:17:51;;;;;;;11.90;10.68;;;16.60;99.90;;;;;;5058417;28;20389;-75
2022/07/03 05:20:27;;;;;;;12.45;11.10;;;16.50;99.90;;;;;;5076367;28;20540;-75
2022/07/03 05:22:59;;;;;;;12.80;11.50;;;16.40;99.90;;;;;;5076455;28;20055;-75
2022/07/03 05:25:25;;;;;;;11.43;10.23;;;16.40;99.90;;;;;;5058411;28;20017;-73
2022/07/03 05:27:52;;;;;;;12.75;10.48;;;16.40;99.90;;;;;;5076174;28;20098;-74
2022/07/03 05:30:19;;;;;;;12.25;10.65;;;16.40;99.90;;;;;;5076338;28;20028;-72
2022/07/03 05:32:45;;;;;;;13.85;11.27;;;16.40;99.90;;;;;;5076117;28;20501;-74
2022/07/03 05:35:11;;;;;;;13.77;10.98;;;16.40;99.90;;;;;;5069719;28;20037;-74
2022/07/03 05:37:37;;;;;;;17.17;10.73;;;16.50;99.90;;;;;;5038060;28;20021;-73
2022/07/03 05:40:07;;;;;;;12.48;10.35;;;16.60;99.90;;;;;;5056118;28;20471;-73
2022/07/03 05:42:33;;;;;;;12.70;11.40;;;16.60;99.90;;;;;;5055908;28;20577;-74
2022/07/03 05:44:59;;;;;;;13.63;10.82;;;16.80;99.90;;;;;;5055711;28;20049;-74
2022/07/03 05:47:24;;;;;;;11.43;10.23;;;16.80;99.90;;;;;;5055922;28;20040;-74
2022/07/03 05:49:50;;;;;;;13.95;10.38;;;16.80;99.90;;;;;;5054831;28;20036;-72
2022/07/03 05:52:16;;;;;;;12.05;10.82;;;16.80;99.90;;;;;;5056012;28;20471;-75
2022/07/03 05:54:42;;;;;;;15.68;11.93;;;16.90;99.90;;;;;;5055865;28;20029;-75
2022/07/03 05:57:08;;;;;;;14.73;11.93;;;16.90;99.90;;;;;;5037761;28;20795;-75
2022/07/03 05:59:34;;;;;;;13.32;11.63;;;16.90;99.90;;;;;;5055569;28;20071;-73
2022/07/03 06:02:00;;;;;;;12.48;10.70;;;17.00;99.90;;;;;;5055782;28;20041;-74
2022/07/03 06:04:25;;;;;;;13.35;11.10;;;16.90;99.90;;;;;;5055624;28;20451;-73
2022/07/03 06:06:51;;;;;;;12.23;10.75;;;17.00;99.90;;;;;;5064835;28;20190;-72
2022/07/03 06:09:17;;;;;;;14.13;11.80;;;17.00;99.90;;;;;;5075465;28;20025;-74
2022/07/03 06:11:43;;;;;;;14.70;11.52;;;17.00;99.90;;;;;;5075502;28;20025;-73
2022/07/03 06:14:08;;;;;;;14.45;11.70;;;16.90;99.90;;;;;;5075377;28;20020;-72
2022/07/03 06:16:34;;;;;;;11.77;10.55;;;17.00;99.90;;;;;;5075352;28;20093;-74
2022/07/03 06:19:00;;;;;;;14.27;11.77;;;17.10;99.90;;;;;;5075196;28;20108;-74
2022/07/03 06:21:26;;;;;;;13.27;10.90;;;17.20;99.90;;;;;;5075183;28;20072;-74
2022/07/03 06:23:51;;;;;;;12.30;10.90;;;17.20;99.90;;;;;;5075169;28;20390;-73
2022/07/03 06:26:17;;;;;;;12.05;10.85;;;17.20;99.90;;;;;;5057186;28;20021;-72
2022/07/03 06:28:43;;;;;;;13.23;11.45;;;17.30;99.90;;;;;;5075083;28;20019;-75
2022/07/03 06:31:09;;;;;;;14.60;10.38;;;17.30;99.90;;;;;;5057154;28;20036;-72
2022/07/03 06:33:35;;;;;;;13.30;11.90;;;17.50;99.90;;;;;;5075143;28;20029;-72
2022/07/03 06:36:00;;;;;;;11.60;10.40;;;17.50;99.90;;;;;;5061596;28;20025;-75
2022/07/03 06:38:26;;;;;;;12.02;10.82;;;17.50;99.90;;;;;;5054944;28;20052;-75
2022/07/03 06:40:52;;;;;;;12.98;10.73;;;17.50;99.90;;;;;;5054715;28;20116;-76
2022/07/03 06:43:18;;;;;;;12.52;11.05;;;17.60;99.90;;;;;;5054618;28;20049;-75
2022/07/03 06:45:44;;;;;;;11.50;10.30;;;17.60;99.90;;;;;;5054637;28;20044;-71
2022/07/03 06:48:09;;;;;;;12.73;11.40;;;17.60;99.90;;;;;;5054502;28;20021;-75
2022/07/03 06:50:35;;;;;;;12.52;10.63;;;17.70;99.90;;;;;;5054453;28;20078;-72
2022/07/03 06:53:01;;;;;;;13.00;11.45;;;17.80;99.90;;;;;;5054402;28;20025;-76
2022/07/03 06:55:27;;;;;;;12.13;10.90;;;17.90;99.90;;;;;;5054398;28;20063;-75
2022/07/03 06:57:53;;;;;;;11.77;10.57;;;17.90;99.90;;;;;;5054492;28;20028;-75
2022/07/03 07:00:19;;;;;;;13.10;10.93;;;18.20;99.90;;;;;;5054113;28;20060;-72
2022/07/03 07:02:45;;;;;;;12.90;10.43;;;18.40;99.90;;;;;;5054241;28;20049;-71
2022/07/03 07:05:10;;;;;;;12.35;10.85;;;18.30;99.90;;;;;;5053937;28;20025;-71
2022/07/03 07:07:36;;;;;;;12.52;10.80;;;18.40;99.90;;;;;;5070144;28;20044;-72
2022/07/03 07:10:02;;;;;;;13.07;11.52;;;18.30;99.90;;;;;;5074042;28;20078;-72
2022/07/03 07:12:28;;;;;;;15.93;10.95;;;18.40;99.90;;;;;;5074190;28;20024;-74
2022/07/03 07:14:53;;;;;;;10.65;9.65;;;18.50;99.90;;;;;;5054042;28;20020;-74
2022/07/03 07:17:19;;;;;;;11.35;9.65;;;18.60;99.90;;;;;;5053277;28;20029;-72
2022/07/03 07:19:44;;;;;;;10.02;9.05;;;18.80;99.90;;;;;;5053905;28;20112;-72
2022/07/03 07:22:10;;;;;;;11.48;10.10;;;18.90;99.90;;;;;;5053864;28;20426;-73
2022/07/03 07:24:36;;;;;;;10.18;9.18;;;19.00;99.90;;;;;;5053950;28;20025;-72
2022/07/03 07:27:01;;;;;;;10.20;9.20;;;19.10;99.90;;;;;;5053872;28;20029;-73
2022/07/03 07:29:27;;;;;;;10.10;8.95;;;19.20;99.90;;;;;;5053958;28;20035;-73
2022/07/03 07:31:53;;;;;;;10.68;8.88;;;19.20;99.90;;;;;;5036100;28;20029;-75
2022/07/03 07:34:19;;;;;;;10.50;9.40;;;19.60;99.90;;;;;;5054058;28;20064;-73
2022/07/03 07:36:44;;;;;;;12.13;9.23;;;19.60;99.90;;;;;;5073783;28;20538;-75
2022/07/03 07:39:10;;;;;;;8.00;7.13;;;19.80;99.90;;;;;;5055603;28;20390;-74
2022/07/03 07:41:37;;;;;;;8.43;7.53;;;20.00;99.90;;;;;;5073517;28;20044;-72
2022/07/03 07:44:03;;;;;;;7.60;6.90;;;20.20;99.90;;;;;;5073574;28;20025;-73
2022/07/03 07:46:29;;;;;;;6.10;5.50;;;20.30;98.30;;;;;;5073338;28;20035;-71
2022/07/03 07:48:55;;;;;;;5.97;5.50;;;20.60;95.90;;;;;;5073397;28;20028;-75
2022/07/03 07:51:21;;;;;;;7.18;4.85;;;20.80;97.70;;;;;;5073485;28;20033;-72
2022/07/03 07:53:47;;;;;;;5.90;5.40;;;20.80;96.10;;;;;;5073499;28;20013;-74
2022/07/03 07:56:13;;;;;;;5.38;4.97;;;21.00;95.60;;;;;;5073337;28;20024;-72
2022/07/03 07:58:38;;;;;;;5.30;4.90;;;21.00;92.90;;;;;;5073351;28;20493;-73
2022/07/03 08:06:32;;;;;;;5.90;5.43;;;21.20;85.70;;;;;;5065298;28;20525;-72
2022/07/03 08:08:58;;;;;;;5.10;4.60;;;21.10;84.10;;;;;;5052988;28;20029;-75
2022/07/03 08:11:24;;;;;;;5.00;4.60;;;21.20;86.30;;;;;;5052969;28;20025;-74
2022/07/03 08:13:49;;;;;;;4.72;4.32;;;21.30;85.10;;;;;;5052476;28;20097;-75
2022/07/03 08:16:17;;;;;;;4.68;4.10;;;21.40;83.20;;;;;;5052899;28;20056;-75
2022/07/03 08:18:42;;;;;;;4.95;4.50;;;21.50;81.10;;;;;;5052902;28;20023;-74
2022/07/03 08:21:08;;;;;;;4.90;4.50;;;21.70;79.70;;;;;;5052695;28;20036;-75
2022/07/03 08:23:34;;;;;;;4.93;4.53;;;21.70;81.40;;;;;;5052983;28;20071;-75
2022/07/03 08:26:00;;;;;;;4.70;4.30;;;22.00;79.60;;;;;;5052741;28;20394;-75
2022/07/03 08:28:27;;;;;;;4.78;4.38;;;22.30;78.40;;;;;;5035203;28;20412;-75
2022/07/03 08:30:52;;;;;;;4.90;4.32;;;22.20;76.20;;;;;;5052679;28;20032;-75
2022/07/03 08:33:19;;;;;;;6.45;4.78;;;22.10;76.20;;;;;;5052933;28;20096;-75
2022/07/03 08:35:45;;;;;;;4.85;4.45;;;21.90;75.60;;;;;;5064349;28;20112;-75
2022/07/03 08:38:11;;;;;;;4.65;4.22;;;21.90;79.10;;;;;;5054915;28;20104;-76
2022/07/03 08:40:38;;;;;;;5.45;4.60;;;21.80;80.30;;;;;;5072606;28;20020;-76
2022/07/03 08:43:05;;;;;;;4.95;4.55;;;21.60;78.40;;;;;;5072630;28;20402;-75
2022/07/03 08:45:33;;;;;;;4.95;4.55;;;21.70;77.60;;;;;;5072507;28;20470;-75
2022/07/03 08:48:00;;;;;;;4.47;4.18;;;21.50;80.60;;;;;;5072732;28;20074;-76
2022/07/03 08:50:26;;;;;;;4.03;3.72;;;21.50;81.80;;;;;;5054574;28;20028;-75
2022/07/03 08:52:52;;;;;;;4.97;4.57;;;21.60;80.90;;;;;;5054776;28;20012;-75
2022/07/03 08:55:19;;;;;;;4.40;4.10;;;21.70;81.10;;;;;;5054545;28;20170;-75
2022/07/03 08:57:47;;;;;;;4.50;4.10;;;21.70;82.00;;;;;;5054710;28;20522;-75
2022/07/03 09:00:17;;;;;;;4.53;4.13;;;22.00;81.50;;;;;;5072581;28;20029;-71
2022/07/03 09:02:45;;;;;;;6.40;4.70;;;22.20;74.10;;;;;;5054571;28;20036;-72
2022/07/03 09:05:12;;;;;;;4.00;3.70;;;22.10;76.00;;;;;;5072355;28;20104;-71
2022/07/03 09:07:40;;;;;;;4.60;4.20;;;21.90;74.80;;;;;;5055543;28;20053;-72
2022/07/03 09:10:09;;;;;;;4.60;4.28;;;21.70;77.40;;;;;;5052401;28;20094;-71
2022/07/03 09:12:35;;;;;;;4.53;4.18;;;21.70;76.00;;;;;;5052465;28;20044;-72
2022/07/03 09:15:06;;;;;;;4.00;3.70;;;21.60;76.00;;;;;;5063121;28;20031;-72
2022/07/03 09:17:32;;;;;;;5.00;4.50;;;21.70;76.90;;;;;;5072391;28;20028;-72
2022/07/03 09:19:59;;;;;;;4.68;4.22;;;22.10;75.20;;;;;;5072318;28;20025;-72
2022/07/03 09:22:26;;;;;;;4.65;4.15;;;22.50;73.10;;;;;;5072099;28;20063;-72
2022/07/03 09:24:54;;;;;;;4.38;3.97;;;22.40;71.80;;;;;;5075130;28;20386;-72
2022/07/03 09:27:22;;;;;;;5.30;4.80;;;22.60;70.00;;;;;;5057985;28;20025;-72
2022/07/03 09:29:59;;;;;;;4.53;4.18;;;22.90;69.00;;;;;;5075959;28;20029;-72
2022/07/03 09:32:25;;;;;;;4.38;3.63;;;23.20;66.00;;;;;;5058064;28;20028;-72
2022/07/03 09:35:09;;;;;;;5.55;4.20;;;23.60;64.10;;;;;;5075709;28;20056;-72
2022/07/03 09:37:36;;;;;;;4.35;3.95;;;24.00;62.10;;;;;;5057961;28;20077;-72
2022/07/03 09:40:02;;;;;;;4.68;4.28;;;24.40;60.20;;;;;;5075772;28;20031;-72
2022/07/03 09:42:28;;;;;;;4.38;4.07;;;24.10;61.60;;;;;;5075656;28;20158;-72
2022/07/03 09:44:54;;;;;;;4.43;4.03;;;24.20;62.20;;;;;;5075452;28;20095;-71
2022/07/03 09:47:22;;;;;;;4.82;4.22;;;24.70;62.10;;;;;;5075685;28;20024;-72
2022/07/03 09:49:54;;;;;;;4.50;4.07;;;24.70;61.60;;;;;;5057691;28;20024;-72
2022/07/03 09:52:33;;;;;;;4.78;4.00;;;24.80;58.40;;;;;;5075623;28;20035;-72
2022/07/03 09:55:01;;;;;;;3.95;3.65;;;24.60;57.50;;;;;;5075332;28;20107;-72
2022/07/03 09:57:28;;;;;;;5.57;4.03;;;24.60;60.30;;;;;;5075498;28;20031;-72
2022/07/03 10:00:21;;;;;;;4.20;3.90;;;24.70;59.90;;;;;;5075464;28;20024;-72
2022/07/03 10:03:03;;;;;;;4.35;4.00;;;24.40;61.00;;;;;;5071742;28;20045;-72
2022/07/03 10:05:31;;;;;;;5.53;4.97;;;24.10;61.90;;;;;;5075315;28;20121;-71
2022/07/03 10:08:01;;;;;;;4.93;4.03;;;23.90;62.00;;;;;;5055354;28;20029;-72
2022/07/03 10:10:32;;;;;;;4.50;4.15;;;23.90;63.10;;;;;;5037413;28;20022;-72
2022/07/03 10:12:59;;;;;;;4.18;3.78;;;24.20;62.90;;;;;;5055070;28;20032;-72
2022/07/03 10:15:26;;;;;;;4.57;3.90;;;23.90;60.60;;;;;;5054967;28;20087;-72
2022/07/03 10:17:54;;;;;;;4.25;3.83;;;23.80;60.30;;;;;;5055004;28;20055;-72
2022/07/03 10:20:28;;;;;;;6.18;3.90;;;23.80;60.60;;;;;;5037630;28;20082;-73
2022/07/03 10:22:54;;;;;;;4.35;4.00;;;23.70;59.90;;;;;;5054909;28;20029;-72
2022/07/03 10:25:20;;;;;;;4.20;3.80;;;23.40;60.30;;;;;;5037051;28;20044;-72
2022/07/03 10:27:47;;;;;;;4.80;4.25;;;23.50;60.80;;;;;;5054845;28;20067;-74
2022/07/03 10:30:17;;;;;;;4.47;4.07;;;23.30;61.20;;;;;;5054912;28;20087;-73
2022/07/03 10:32:52;;;;;;;3.85;3.55;;;23.50;62.70;;;;;;5036754;28;20537;-74
2022/07/03 10:35:33;;;;;;;4.55;4.15;;;23.70;60.60;;;;;;5063006;28;20025;-74
2022/07/03 10:38:02;;;;;;;5.47;4.00;;;23.70;60.40;;;;;;5056781;28;20083;-73
2022/07/03 10:46:26;;;;;;;3.60;3.30;;;23.60;59.40;;;;;;5074722;28;20051;-74
2022/07/03 10:49:11;;;;;;;4.57;4.18;;;24.00;60.10;;;;;;5056426;28;20482;-72
2022/07/03 10:51:48;;;;;;;4.68;4.28;;;23.70;59.40;;;;;;5046377;28;20017;-73
2022/07/03 10:54:16;;;;;;;6.20;5.55;;;23.50;59.50;;;;;;5054624;28;20024;-74
2022/07/03 10:57:00;;;;;;;5.50;5.00;;;23.40;60.30;;;;;;5054367;28;20082;-73
2022/07/03 10:59:35;;;;;;;5.10;4.70;;;23.50;59.90;;;;;;5036547;28;20437;-72
2022/07/03 11:02:23;;;;;;;4.72;4.25;;;23.60;60.20;;;;;;5036486;28;20124;-75
2022/07/03 11:04:58;;;;;;;4.55;3.90;;;23.80;59.50;;;;;;5054456;28;20035;-75
2022/07/03 11:07:25;;;;;;;4.20;3.78;;;23.80;60.40;;;;;;5069666;28;20041;-75
2022/07/03 11:10:23;;;;;;;4.30;4.00;;;23.90;60.40;;;;;;5073483;28;20020;-72
2022/07/03 11:13:10;;;;;;;4.32;4.03;;;24.20;59.10;;;;;;5017483;28;20036;-72
2022/07/03 11:15:51;;;;;;;5.40;3.75;;;24.50;58.60;;;;;;5073320;28;20381;-74
2022/07/03 11:18:20;;;;;;;4.00;3.70;;;24.80;59.50;;;;;;5053654;28;20028;-74
2022/07/03 11:20:48;;;;;;;3.92;3.40;;;24.90;56.80;;;;;;5053924;28;20366;-74
2022/07/03 11:23:26;;;;;;;4.20;3.72;;;25.20;56.60;;;;;;5054093;28;20024;-72
2022/07/03 11:25:54;;;;;;;4.43;4.00;;;25.10;57.50;;;;;;5053871;28;20025;-72
2022/07/03 11:28:31;;;;;;;5.50;3.80;;;25.30;55.50;;;;;;5068170;28;20025;-74
2022/07/03 11:31:18;;;;;;;4.30;4.00;;;25.40;54.60;;;;;;5072966;28;20024;-72
2022/07/03 11:33:57;;;;;;;6.40;3.72;;;25.50;53.60;;;;;;5073735;28;20769;-72
2022/07/03 11:36:28;;;;;;;3.67;3.38;;;25.90;53.50;;;;;;5055791;28;20021;-76
2022/07/03 11:39:02;;;;;;;3.55;3.33;;;26.20;54.60;;;;;;5052515;28;20483;-73
2022/07/03 11:41:35;;;;;;;3.65;3.35;;;26.20;52.90;;;;;;5052032;28;20494;-73
2022/07/03 11:44:04;;;;;;;4.00;3.70;;;25.90;52.50;;;;;;5035612;28;20020;-72
2022/07/03 11:46:32;;;;;;;3.55;3.35;;;26.10;53.10;;;;;;5053430;28;20028;-74
2022/07/03 11:49:11;;;;;;;3.58;3.28;;;26.20;53.30;;;;;;5035241;28;20017;-73
2022/07/03 11:51:39;;;;;;;4.85;4.40;;;26.20;54.40;;;;;;5052701;28;20028;-73
2022/07/03 11:54:05;;;;;;;4.50;3.38;;;26.10;53.50;;;;;;5052597;28;20021;-75
2022/07/03 11:56:31;;;;;;;3.95;3.67;;;26.20;54.30;;;;;;5053647;28;20025;-72
2022/07/03 11:58:59;;;;;;;3.80;3.50;;;26.40;52.70;;;;;;5053348;28;20014;-74
2022/07/03 12:01:25;;;;;;;3.70;3.40;;;26.40;52.90;;;;;;5053481;28;20059;-73
2022/07/03 12:04:23;;;;;;;5.05;3.70;;;26.30;51.60;;;;;;5051206;28;20025;-74
2022/07/03 12:06:53;;;;;;;3.45;3.25;;;26.40;50.50;;;;;;5035125;28;20052;-72
2022/07/03 12:09:30;;;;;;;4.97;3.33;;;26.60;50.00;;;;;;5077985;22;20064;-83
2022/07/03 12:12:07;;;;;;;4.10;3.80;;;26.80;50.60;;;;;;5079391;28;20039;-82
2022/07/03 12:14:33;;;;;;;3.50;3.22;;;26.60;50.60;;;;;;5074519;28;20020;-90
2022/07/03 12:16:59;;;;;;;5.13;3.88;;;26.80;51.80;;;;;;5092840;28;20032;-87
2022/07/03 12:19:25;;;;;;;3.72;3.45;;;27.10;52.90;;;;;;5092944;28;20024;-83
2022/07/03 12:21:51;;;;;;;4.60;4.07;;;27.00;51.50;;;;;;5074623;28;20023;-84
2022/07/03 12:24:17;;;;;;;4.25;3.60;;;27.00;51.90;;;;;;5074701;28;20028;-83
2022/07/03 12:26:43;;;;;;;3.83;3.50;;;26.90;49.50;;;;;;5074629;28;20032;-82
2022/07/03 12:29:10;;;;;;;3.85;3.63;;;26.80;49.70;;;;;;5092558;28;20016;-87
2022/07/03 12:31:43;;;;;;;4.28;3.88;;;26.70;50.40;;;;;;5074329;28;20564;-84
2022/07/03 12:34:10;;;;;;;4.00;3.60;;;26.70;50.60;;;;;;5074899;28;20021;-83
2022/07/03 12:36:36;;;;;;;5.28;4.07;;;26.90;50.70;;;;;;5072434;28;20036;-89
2022/07/03 12:39:02;;;;;;;3.70;3.40;;;26.70;49.70;;;;;;5054844;28;20017;-87
2022/07/03 12:41:28;;;;;;;5.35;4.03;;;26.70;51.70;;;;;;5054588;28;20528;-88
2022/07/03 12:43:55;;;;;;;4.18;3.85;;;26.80;50.30;;;;;;5058832;28;20029;-83
2022/07/03 12:46:25;;;;;;;4.18;3.45;;;26.80;50.50;;;;;;5091576;28;20025;-88
2022/07/03 12:48:56;;;;;;;3.88;3.58;;;27.00;50.90;;;;;;5091911;28;20020;-83
2022/07/03 12:51:42;;;;;;;3.63;3.42;;;27.30;50.20;;;;;;5074577;28;20043;-88
2022/07/03 12:54:11;;;;;;;5.65;3.80;;;27.20;50.00;;;;;;5073931;28;20377;-84
2022/07/03 12:56:36;;;;;;;4.32;3.92;;;26.90;50.30;;;;;;5091997;28;20016;-88
2022/07/03 12:59:18;;;;;;;4.22;3.92;;;26.90;50.50;;;;;;5076078;28;20496;-87
2022/07/03 13:01:58;;;;;;;3.75;3.38;;;26.80;50.70;;;;;;5096276;28;20477;-90
2022/07/03 13:04:33;;;;;;;5.50;3.83;;;26.70;50.00;;;;;;5078313;28;20034;-88
2022/07/03 13:07:08;;;;;;;6.43;4.78;;;26.90;51.10;;;;;;5091186;28;20031;-88